NWWW METAR and TAF weather

Enter ICAO airport designator
Station Type Date Time Source
NWWW METAR 2018/12/10 12:30 UTC NOAA

NWWW 101230Z AUTO 10006KT CAVOK 21/16 Q1013 NOSIG


Station Type Date Time Source
NWWW Decoded METAR 2018/12/10 12:30 UTC NOAA

La Tontouta Nlle-Caledonie , New Caledonia (NWWW) 22-01S 166-13E 14M
Dec 10, 2018 - 07:30 AM EST / 2018.12.10 1230 UTC
Wind: from the E (100 degrees) at 7 MPH (6 KT):0
Visibility: greater than 7 mile(s):0
Temperature: 69 F (21 C)
Dew Point: 60 F (16 C)
Relative Humidity: 73%
Pressure (altimeter): 29.91 in. Hg (1013 hPa)
ob: NWWW 101230Z AUTO 10006KT CAVOK 21/16 Q1013 NOSIG
cycle: 12

Station Type Date Time Source
NWWW TAF 2018/12/10 12:24 UTC NOAA

TAF NWWW 101100Z 1012/1112 VRB02KT 9999 FEW040
BECMG 1022/1101 15018KT
BECMG 1106/1109 VRB02KT


Example: see airport list